Time,TemperatureF,DewpointF,PressureIn,WindDirection,WindDirectionDegrees,WindSpeedMPH,WindSpeedGustMPH,Humidity,HourlyPrecipIn,Conditions,Clouds,dailyrainin,SoftwareType,DateUTC
2013-04-24 00:01:00,44.9,37.4,29.71,East,90,0.0,0.0,75,0.00,,,0.00,WUHU216HW,2013-04-24 04:01:00,
2013-04-24 00:02:00,44.9,37.4,29.71,East,90,0.0,0.0,75,0.00,,,0.00,WUHU216HW,2013-04-24 04:02:00,
2013-04-24 00:03:00,44.9,37.4,29.71,East,90,0.0,0.0,75,0.00,,,0.00,WUHU216HW,2013-04-24 04:03:00,
2013-04-24 00:08:00,45.1,37.6,29.71,SSE,158,4.2,4.2,75,0.00,,,0.00,WUHU216HW,2013-04-24 04:08:00,
2013-04-24 00:13:00,45.6,38.5,29.71,NE,45,0.0,4.2,76,0.00,,,0.00,WUHU216HW,2013-04-24 04:13:00,
2013-04-24 00:18:00,46.4,39.2,29.70,East,90,0.0,1.3,76,0.00,,,0.00,WUHU216HW,2013-04-24 04:18:00,
2013-04-24 00:23:00,47.1,39.5,29.71,ENE,68,0.0,1.3,75,0.00,,,0.00,WUHU216HW,2013-04-24 04:23:00,
2013-04-24 00:28:00,47.8,39.8,29.71,SE,135,1.1,5.1,74,0.00,,,0.00,WUHU216HW,2013-04-24 04:28:00,
2013-04-24 00:33:00,48.5,40.2,29.71,East,90,0.0,5.1,73,0.00,,,0.00,WUHU216HW,2013-04-24 04:33:00,
2013-04-24 00:38:00,48.9,40.5,29.72,ESE,113,0.0,3.8,73,0.00,,,0.00,WUHU216HW,2013-04-24 04:38:00,
2013-04-24 00:43:00,49.1,40.4,29.71,East,90,0.0,3.3,72,0.00,,,0.00,WUHU216HW,2013-04-24 04:43:00,
2013-04-24 00:48:00,49.2,40.2,29.71,ESE,113,2.0,6.2,71,0.00,,,0.00,WUHU216HW,2013-04-24 04:48:00,
2013-04-24 00:53:00,49.6,40.9,29.70,East,90,0.0,7.8,72,0.00,,,0.00,WUHU216HW,2013-04-24 04:53:00,
2013-04-24 00:58:00,49.8,41.1,29.71,East,90,0.0,7.8,72,0.00,,,0.00,WUHU216HW,2013-04-24 04:58:00,
2013-04-24 01:03:00,49.8,41.1,29.70,East,90,2.9,12.5,72,0.00,,,0.00,WUHU216HW,2013-04-24 05:03:00,
2013-04-24 01:08:00,50.0,40.9,29.70,East,90,2.9,12.5,71,0.00,,,0.00,WUHU216HW,2013-04-24 05:08:00,
2013-04-24 01:13:00,49.8,40.8,29.71,ESE,113,5.1,8.2,71,0.00,,,0.00,WUHU216HW,2013-04-24 05:13:00,
2013-04-24 01:18:00,49.8,40.8,29.70,ESE,113,0.0,5.1,71,0.00,,,0.00,WUHU216HW,2013-04-24 05:18:00,
2013-04-24 01:23:00,49.6,40.9,29.70,ESE,113,1.3,3.3,72,0.00,,,0.00,WUHU216HW,2013-04-24 05:23:00,
2013-04-24 01:28:00,49.6,40.9,29.70,South,180,4.9,4.9,72,0.00,,,0.00,WUHU216HW,2013-04-24 05:28:00,
2013-04-24 01:33:00,49.4,40.7,29.70,SSE,158,1.1,4.9,72,0.00,,,0.00,WUHU216HW,2013-04-24 05:33:00,
2013-04-24 01:38:00,49.2,40.9,29.69,SE,135,0.0,6.4,73,0.00,,,0.00,WUHU216HW,2013-04-24 05:38:00,
2013-04-24 01:43:00,49.2,40.9,29.69,South,180,0.0,6.4,73,0.00,,,0.00,WUHU216HW,2013-04-24 05:43:00,
2013-04-24 01:48:00,49.1,40.7,29.69,SW,225,0.0,1.7,73,0.00,,,0.00,WUHU216HW,2013-04-24 05:48:00,
2013-04-24 01:53:00,49.1,40.7,29.69,SSE,158,0.0,4.0,73,0.00,,,0.00,WUHU216HW,2013-04-24 05:53:00,
2013-04-24 01:59:00,49.1,40.7,29.69,SE,135,1.3,4.0,73,0.00,,,0.00,WUHU216HW,2013-04-24 05:59:00,
2013-04-24 02:04:00,49.2,40.9,29.69,ESE,113,4.4,4.6,73,0.00,,,0.00,WUHU216HW,2013-04-24 06:04:00,
2013-04-24 02:09:00,49.6,41.6,29.68,South,180,3.3,11.8,74,0.00,,,0.00,WUHU216HW,2013-04-24 06:09:00,
2013-04-24 02:14:00,49.6,41.3,29.69,South,180,0.0,11.8,73,0.00,,,0.00,WUHU216HW,2013-04-24 06:14:00,
2013-04-24 02:19:00,49.6,41.3,29.69,South,180,0.0,4.6,73,0.00,,,0.00,WUHU216HW,2013-04-24 06:19:00,
2013-04-24 02:24:00,49.2,40.9,29.68,East,90,0.0,4.6,73,0.00,,,0.00,WUHU216HW,2013-04-24 06:24:00,
2013-04-24 02:29:00,49.1,40.7,29.68,SW,225,0.0,2.6,73,0.00,,,0.00,WUHU216HW,2013-04-24 06:29:00,
2013-04-24 02:34:00,49.1,40.7,29.68,South,180,0.0,1.5,73,0.00,,,0.00,WUHU216HW,2013-04-24 06:34:00,
2013-04-24 02:39:00,49.1,41.1,29.68,West,270,0.0,8.5,74,0.00,,,0.00,WUHU216HW,2013-04-24 06:39:00,
2013-04-24 02:44:00,49.1,41.1,29.68,SSE,158,6.0,8.5,74,0.00,,,0.00,WUHU216HW,2013-04-24 06:44:00,
2013-04-24 02:49:00,49.1,41.1,29.67,SSE,158,0.0,7.1,74,0.00,,,0.00,WUHU216HW,2013-04-24 06:49:00,
2013-04-24 02:54:00,49.1,41.1,29.67,ESE,113,9.3,9.3,74,0.00,,,0.00,WUHU216HW,2013-04-24 06:54:00,
2013-04-24 02:59:00,49.1,41.4,29.68,East,90,2.6,9.3,75,0.00,,,0.00,WUHU216HW,2013-04-24 06:59:00,
2013-04-24 03:04:00,49.2,41.6,29.67,ESE,113,8.7,8.7,75,0.00,,,0.00,WUHU216HW,2013-04-24 07:04:00,
2013-04-24 03:09:00,49.2,41.9,29.67,SE,135,2.9,9.1,76,0.00,,,0.00,WUHU216HW,2013-04-24 07:09:00,
2013-04-24 03:14:00,49.2,41.9,29.67,SE,135,0.0,9.1,76,0.00,,,0.00,WUHU216HW,2013-04-24 07:14:00,
2013-04-24 03:19:00,49.2,41.9,29.67,ENE,68,3.5,7.1,76,0.00,,,0.00,WUHU216HW,2013-04-24 07:19:00,
2013-04-24 03:24:00,49.2,41.9,29.67,SE,135,0.0,7.1,76,0.00,,,0.00,WUHU216HW,2013-04-24 07:24:00,
2013-04-24 03:29:00,49.2,41.9,29.67,SE,135,0.8,7.1,76,0.00,,,0.00,WUHU216HW,2013-04-24 07:29:00,
2013-04-24 03:34:00,49.2,41.9,29.66,SE,135,6.2,6.7,76,0.00,,,0.00,WUHU216HW,2013-04-24 07:34:00,
2013-04-24 03:39:00,49.2,42.3,29.66,ESE,113,7.8,7.8,77,0.00,,,0.00,WUHU216HW,2013-04-24 07:39:00,
2013-04-24 03:44:00,49.6,42.6,29.65,East,90,0.0,9.1,77,0.00,,,0.00,WUHU216HW,2013-04-24 07:44:00,
2013-04-24 03:50:00,49.6,42.6,29.66,East,90,2.9,9.1,77,0.00,,,0.00,WUHU216HW,2013-04-24 07:50:00,
2013-04-24 03:55:00,49.8,42.8,29.65,ESE,113,4.4,5.3,77,0.00,,,0.00,WUHU216HW,2013-04-24 07:55:00,
2013-04-24 04:00:00,49.8,42.8,29.66,SE,135,1.5,8.7,77,0.00,,,0.00,WUHU216HW,2013-04-24 08:00:00,
2013-04-24 04:05:00,49.8,42.8,29.66,South,180,0.0,7.8,77,0.00,,,0.00,WUHU216HW,2013-04-24 08:05:00,
2013-04-24 04:10:00,49.8,42.8,29.66,East,90,0.0,6.9,77,0.00,,,0.00,WUHU216HW,2013-04-24 08:10:00,
2013-04-24 04:15:00,49.6,42.6,29.66,SE,135,2.9,13.1,78,0.00,,,0.00,WUHU216HW,2013-04-24 08:15:00,
2013-04-24 04:20:00,49.4,42.8,29.66,ESE,113,6.7,13.1,78,0.00,,,0.00,WUHU216HW,2013-04-24 08:20:00,
2013-04-24 04:25:00,49.2,42.6,29.65,ESE,113,6.7,6.7,78,0.00,,,0.00,WUHU216HW,2013-04-24 08:25:00,
2013-04-24 04:30:00,49.1,42.4,29.65,ESE,113,2.6,6.7,78,0.00,,,0.00,WUHU216HW,2013-04-24 08:30:00,
2013-04-24 04:35:00,49.1,42.4,29.65,ESE,113,2.2,4.2,78,0.00,,,0.00,WUHU216HW,2013-04-24 08:35:00,
2013-04-24 04:40:00,48.9,42.2,29.65,ESE,113,0.0,8.9,78,0.00,,,0.00,WUHU216HW,2013-04-24 08:40:00,
2013-04-24 04:45:00,48.9,42.2,29.65,ESE,113,7.6,8.9,78,0.00,,,0.00,WUHU216HW,2013-04-24 08:45:00,
2013-04-24 04:50:00,48.7,42.4,29.65,ESE,113,0.0,9.1,79,0.00,,,0.00,WUHU216HW,2013-04-24 08:50:00,
2013-04-24 04:55:00,48.7,42.4,29.65,ESE,113,1.1,9.1,79,0.00,,,0.00,WUHU216HW,2013-04-24 08:55:00,
2013-04-24 05:01:00,48.5,42.2,29.65,ESE,113,6.9,7.8,79,0.00,,,0.00,WUHU216HW,2013-04-24 09:01:00,
2013-04-24 05:06:00,48.5,42.2,29.65,SE,135,0.0,6.9,79,0.00,,,0.00,WUHU216HW,2013-04-24 09:06:00,
2013-04-24 05:11:00,48.5,42.2,29.65,ESE,113,6.0,6.2,79,0.00,,,0.00,WUHU216HW,2013-04-24 09:11:00,
2013-04-24 05:16:00,48.3,42.4,29.65,SE,135,0.0,6.2,80,0.00,,,0.00,WUHU216HW,2013-04-24 09:16:00,
2013-04-24 05:21:00,48.3,42.4,29.65,SE,135,0.0,5.1,80,0.00,,,0.00,WUHU216HW,2013-04-24 09:21:00,
2013-04-24 05:26:00,48.2,42.4,29.65,SE,135,1.1,4.4,80,0.00,,,0.00,WUHU216HW,2013-04-24 09:26:00,
2013-04-24 05:31:00,48.0,42.0,29.65,ESE,113,0.0,10.2,80,0.00,,,0.00,WUHU216HW,2013-04-24 09:31:00,
2013-04-24 05:36:00,48.2,42.2,29.64,SE,135,0.0,10.2,80,0.00,,,0.00,WUHU216HW,2013-04-24 09:36:00,
2013-04-24 05:41:00,48.2,42.2,29.65,ESE,113,0.0,8.0,80,0.00,,,0.00,WUHU216HW,2013-04-24 09:41:00,
2013-04-24 05:46:00,48.2,42.7,29.65,ESE,113,4.0,8.2,81,0.00,,,0.00,WUHU216HW,2013-04-24 09:46:00,
2013-04-24 05:51:00,48.3,42.7,29.65,ESE,113,5.5,8.2,81,0.00,,,0.00,WUHU216HW,2013-04-24 09:51:00,
2013-04-24 05:56:00,48.3,42.7,29.64,SE,135,10.7,10.7,81,0.00,,,0.00,WUHU216HW,2013-04-24 09:56:00,
2013-04-24 06:01:00,48.3,42.7,29.65,ESE,113,0.0,10.7,81,0.00,,,0.00,WUHU216HW,2013-04-24 10:01:00,
2013-04-24 06:06:00,48.3,42.7,29.65,SE,135,0.0,9.3,81,0.00,,,0.00,WUHU216HW,2013-04-24 10:06:00,
2013-04-24 06:11:00,48.3,42.7,29.64,ESE,113,5.8,9.3,81,0.00,,,0.00,WUHU216HW,2013-04-24 10:11:00,
2013-04-24 06:16:00,48.3,42.7,29.65,SSE,158,0.0,8.7,81,0.00,,,0.00,WUHU216HW,2013-04-24 10:16:00,
2013-04-24 06:21:00,48.3,42.7,29.65,SE,135,0.0,9.6,81,0.00,,,0.00,WUHU216HW,2013-04-24 10:21:00,
2013-04-24 06:26:00,48.3,42.7,29.64,SE,135,0.0,9.6,81,0.00,,,0.00,WUHU216HW,2013-04-24 10:26:00,
2013-04-24 06:31:00,48.3,43.0,29.64,South,180,2.6,8.5,82,0.00,,,0.00,WUHU216HW,2013-04-24 10:31:00,
2013-04-24 06:36:00,48.5,43.2,29.65,East,90,17.0,17.0,82,0.00,,,0.00,WUHU216HW,2013-04-24 10:36:00,
2013-04-24 06:41:00,48.5,43.2,29.64,SE,135,0.0,17.0,82,0.00,,,0.00,WUHU216HW,2013-04-24 10:41:00,
2013-04-24 06:46:00,48.7,42.9,29.64,SSW,203,1.7,8.5,81,0.00,,,0.00,WUHU216HW,2013-04-24 10:46:00,
2013-04-24 06:51:00,48.7,43.1,29.64,SE,135,0.0,7.3,81,0.00,,,0.00,WUHU216HW,2013-04-24 10:51:00,
2013-04-24 06:56:00,48.7,43.1,29.64,SE,135,0.0,6.0,81,0.00,,,0.00,WUHU216HW,2013-04-24 10:56:00,
2013-04-24 07:01:00,48.7,43.1,29.64,SE,135,0.0,6.4,81,0.00,,,0.00,WUHU216HW,2013-04-24 11:01:00,
2013-04-24 07:06:00,48.7,43.1,29.65,ESE,113,0.0,6.4,81,0.00,,,0.00,WUHU216HW,2013-04-24 11:06:00,
2013-04-24 07:11:00,48.7,43.1,29.64,ENE,68,0.0,0.0,81,0.00,,,0.00,WUHU216HW,2013-04-24 11:11:00,
2013-04-24 07:16:00,48.7,43.1,29.65,ESE,113,3.8,3.8,81,0.00,,,0.00,WUHU216HW,2013-04-24 11:16:00,
2013-04-24 07:21:00,48.7,43.1,29.65,SE,135,0.0,3.8,81,0.00,,,0.00,WUHU216HW,2013-04-24 11:21:00,
2013-04-24 07:26:00,48.9,43.2,29.64,ENE,68,0.0,3.3,81,0.00,,,0.00,WUHU216HW,2013-04-24 11:26:00,
2013-04-24 07:31:00,49.1,43.4,29.64,ESE,113,7.3,11.1,81,0.00,,,0.00,WUHU216HW,2013-04-24 11:31:00,
2013-04-24 07:36:00,49.2,43.6,29.64,ESE,113,2.2,11.1,81,0.00,,,0.00,WUHU216HW,2013-04-24 11:36:00,
2013-04-24 07:41:00,49.6,44.0,29.64,ESE,113,4.0,4.6,81,0.00,,,0.00,WUHU216HW,2013-04-24 11:41:00,
2013-04-24 07:46:00,49.8,44.1,29.64,ENE,68,2.9,5.8,81,0.00,,,0.00,WUHU216HW,2013-04-24 11:46:00,
2013-04-24 07:51:00,50.1,44.5,29.64,SE,135,0.0,5.8,81,0.00,,,0.00,WUHU216HW,2013-04-24 11:51:00,
2013-04-24 07:56:00,50.3,44.4,29.64,ENE,68,2.6,8.0,80,0.00,,,0.00,WUHU216HW,2013-04-24 11:56:00,
2013-04-24 08:01:00,50.5,44.6,29.64,ESE,113,7.8,8.0,80,0.00,,,0.00,WUHU216HW,2013-04-24 12:01:00,
2013-04-24 08:07:00,50.7,44.7,29.64,ENE,68,5.1,8.2,80,0.00,,,0.00,WUHU216HW,2013-04-24 12:07:00,
2013-04-24 08:12:00,50.9,44.6,29.64,SSE,158,0.0,8.2,79,0.00,,,0.00,WUHU216HW,2013-04-24 12:12:00,
2013-04-24 08:17:00,50.9,44.6,29.64,NE,45,3.8,8.2,79,0.00,,,0.00,WUHU216HW,2013-04-24 12:17:00,
2013-04-24 08:22:00,51.0,44.7,29.64,East,90,0.0,8.2,79,0.00,,,0.00,WUHU216HW,2013-04-24 12:22:00,
2013-04-24 08:27:00,51.4,45.1,29.64,SSE,158,3.8,5.5,79,0.00,,,0.00,WUHU216HW,2013-04-24 12:27:00,
2013-04-24 08:32:00,51.4,45.1,29.64,East,90,3.3,5.5,79,0.00,,,0.00,WUHU216HW,2013-04-24 12:32:00,
2013-04-24 08:37:00,51.6,44.9,29.64,East,90,6.4,8.2,78,0.00,,,0.00,WUHU216HW,2013-04-24 12:37:00,
2013-04-24 08:42:00,51.9,45.1,29.63,ESE,113,1.3,8.2,78,0.00,,,0.00,WUHU216HW,2013-04-24 12:42:00,
2013-04-24 08:47:00,52.1,45.5,29.64,ESE,113,1.5,9.3,78,0.00,,,0.00,WUHU216HW,2013-04-24 12:47:00,
2013-04-24 08:52:00,52.3,45.6,29.63,SSE,158,0.0,9.3,78,0.00,,,0.00,WUHU216HW,2013-04-24 12:52:00,
2013-04-24 08:57:00,53.2,46.5,29.63,East,90,2.2,3.8,78,0.00,,,0.00,WUHU216HW,2013-04-24 12:57:00,
2013-04-24 09:02:00,54.3,47.4,29.63,ESE,113,0.0,6.0,77,0.00,,,0.00,WUHU216HW,2013-04-24 13:02:00,
2013-04-24 09:07:00,55.7,48.0,29.63,ESE,113,8.2,8.2,75,0.00,,,0.00,WUHU216HW,2013-04-24 13:07:00,
2013-04-24 09:12:00,57.0,48.7,29.62,SE,135,6.2,8.2,74,0.00,,,0.00,WUHU216HW,2013-04-24 13:12:00,
2013-04-24 09:17:00,58.2,49.2,29.62,ESE,113,2.0,6.2,72,0.00,,,0.00,WUHU216HW,2013-04-24 13:17:00,
2013-04-24 09:22:00,58.8,48.6,29.62,SSE,158,0.0,5.5,69,0.00,,,0.00,WUHU216HW,2013-04-24 13:22:00,
2013-04-24 09:27:00,59.7,49.1,29.62,SSE,158,0.0,1.5,68,0.00,,,0.00,WUHU216HW,2013-04-24 13:27:00,
2013-04-24 09:32:00,60.2,49.2,29.61,South,180,2.2,5.8,67,0.00,,,0.00,WUHU216HW,2013-04-24 13:32:00,
2013-04-24 09:37:00,60.8,49.4,29.60,SSE,158,0.4,6.9,66,0.00,,,0.00,WUHU216HW,2013-04-24 13:37:00,
2013-04-24 09:42:00,61.7,49.8,29.60,SE,135,0.0,6.9,65,0.00,,,0.00,WUHU216HW,2013-04-24 13:42:00,
2013-04-24 09:47:00,62.2,49.8,29.59,East,90,3.1,4.9,64,0.00,,,0.00,WUHU216HW,2013-04-24 13:47:00,
2013-04-24 09:52:00,62.7,49.9,29.59,East,90,5.3,5.3,63,0.00,,,0.00,WUHU216HW,2013-04-24 13:52:00,
2013-04-24 09:57:00,63.3,50.2,29.59,ENE,68,0.0,5.3,63,0.00,,,0.00,WUHU216HW,2013-04-24 13:57:00,
2013-04-24 10:02:00,63.5,50.2,29.59,SSE,158,0.0,6.9,62,0.00,,,0.00,WUHU216HW,2013-04-24 14:02:00,
2013-04-24 10:07:00,64.0,50.2,29.59,ESE,113,1.1,6.9,61,0.00,,,0.00,WUHU216HW,2013-04-24 14:07:00,
2013-04-24 10:12:00,64.2,50.0,29.59,SE,135,3.5,3.5,60,0.00,,,0.00,WUHU216HW,2013-04-24 14:12:00,
2013-04-24 10:17:00,64.4,49.6,29.59,SSE,158,0.0,3.5,59,0.00,,,0.00,WUHU216HW,2013-04-24 14:17:00,
2013-04-24 10:22:00,64.7,50.5,29.58,SE,135,0.0,6.7,60,0.00,,,0.00,WUHU216HW,2013-04-24 14:22:00,
2013-04-24 10:27:00,65.3,51.0,29.58,SE,135,0.0,12.5,60,0.00,,,0.00,WUHU216HW,2013-04-24 14:27:00,
2013-04-24 10:32:00,65.8,51.1,29.58,ESE,113,9.6,12.5,59,0.00,,,0.00,WUHU216HW,2013-04-24 14:32:00,
2013-04-24 10:37:00,65.8,51.1,29.58,South,180,0.6,11.6,59,0.00,,,0.00,WUHU216HW,2013-04-24 14:37:00,
2013-04-24 10:42:00,66.5,51.8,29.59,SSW,203,0.0,4.9,59,0.00,,,0.00,WUHU216HW,2013-04-24 14:42:00,
2013-04-24 10:47:00,67.6,52.3,29.59,East,90,0.0,4.2,58,0.00,,,0.00,WUHU216HW,2013-04-24 14:47:00,
2013-04-24 10:52:00,68.3,52.4,29.58,ENE,68,0.0,4.2,57,0.00,,,0.00,WUHU216HW,2013-04-24 14:52:00,
2013-04-24 10:57:00,68.5,52.1,29.58,East,90,4.4,4.6,56,0.00,,,0.00,WUHU216HW,2013-04-24 14:57:00,
2013-04-24 11:02:00,68.5,51.6,29.58,South,180,1.1,10.2,55,0.00,,,0.00,WUHU216HW,2013-04-24 15:02:00,
2013-04-24 11:09:00,69.0,52.1,29.58,SE,135,11.4,11.4,55,0.00,,,0.00,WUHU216HW,2013-04-24 15:09:00,
2013-04-24 11:14:00,69.2,51.8,29.58,SSE,158,4.0,11.4,54,0.00,,,0.00,WUHU216HW,2013-04-24 15:14:00,
2013-04-24 11:19:00,69.0,51.6,29.57,ESE,113,3.8,7.3,54,0.00,,,0.00,WUHU216HW,2013-04-24 15:19:00,
2013-04-24 11:24:00,69.0,52.1,29.57,East,90,0.0,11.1,55,0.00,,,0.00,WUHU216HW,2013-04-24 15:24:00,
2013-04-24 11:29:00,69.0,52.3,29.57,ENE,68,0.0,11.1,55,0.00,,,0.00,WUHU216HW,2013-04-24 15:29:00,
2013-04-24 11:34:00,69.8,52.8,29.57,SSE,158,2.6,6.2,55,0.00,,,0.00,WUHU216HW,2013-04-24 15:34:00,
2013-04-24 11:39:00,70.3,53.3,29.57,ENE,68,3.5,11.8,55,0.00,,,0.00,WUHU216HW,2013-04-24 15:39:00,
2013-04-24 11:44:00,70.3,52.8,29.57,East,90,4.2,11.8,54,0.00,,,0.00,WUHU216HW,2013-04-24 15:44:00,
2013-04-24 11:49:00,70.7,53.1,29.56,ESE,113,11.4,11.4,54,0.00,,,0.00,WUHU216HW,2013-04-24 15:49:00,
2013-04-24 11:54:00,70.8,52.8,29.56,SSE,158,2.0,11.4,53,0.00,,,0.00,WUHU216HW,2013-04-24 15:54:00,
2013-04-24 11:59:00,70.7,52.6,29.55,East,90,0.0,8.2,53,0.00,,,0.00,WUHU216HW,2013-04-24 15:59:00,
2013-04-24 12:05:00,70.8,53.3,29.55,NE,45,0.0,7.6,54,0.00,,,0.00,WUHU216HW,2013-04-24 16:05:00,
2013-04-24 12:10:00,71.2,53.6,29.54,East,90,0.0,7.6,54,0.00,,,0.00,WUHU216HW,2013-04-24 16:10:00,
2013-04-24 12:15:00,71.7,53.6,29.53,ESE,113,8.2,11.8,53,0.00,,,0.00,WUHU216HW,2013-04-24 16:15:00,
2013-04-24 12:20:00,71.7,53.6,29.52,SE,135,2.6,11.8,53,0.00,,,0.00,WUHU216HW,2013-04-24 16:20:00,
2013-04-24 12:25:00,71.9,53.3,29.52,ESE,113,0.0,9.1,52,0.00,,,0.00,WUHU216HW,2013-04-24 16:25:00,
2013-04-24 12:30:00,72.1,53.3,29.51,East,90,10.2,10.7,52,0.00,,,0.00,WUHU216HW,2013-04-24 16:30:00,
2013-04-24 12:35:00,71.7,53.1,29.51,East,90,9.8,10.7,52,0.00,,,0.00,WUHU216HW,2013-04-24 16:35:00,
2013-04-24 12:40:00,71.6,52.4,29.52,SE,135,4.9,9.8,51,0.00,,,0.00,WUHU216HW,2013-04-24 16:40:00,
2013-04-24 12:45:00,71.4,52.8,29.52,ESE,113,2.0,9.8,52,0.00,,,0.00,WUHU216HW,2013-04-24 16:45:00,
2013-04-24 12:50:00,71.7,53.1,29.51,SE,135,7.3,7.8,52,0.00,,,0.00,WUHU216HW,2013-04-24 16:50:00,
2013-04-24 12:55:00,72.1,53.9,29.51,ENE,68,1.7,7.3,53,0.00,,,0.00,WUHU216HW,2013-04-24 16:55:00,
2013-04-24 13:00:00,72.6,53.9,29.51,East,90,7.1,8.0,52,0.00,,,0.00,WUHU216HW,2013-04-24 17:00:00,
2013-04-24 13:05:00,73.0,54.2,29.50,ESE,113,10.5,16.1,51,0.00,,,0.00,WUHU216HW,2013-04-24 17:05:00,
2013-04-24 13:10:00,73.0,53.7,29.50,ESE,113,8.5,16.1,51,0.00,,,0.00,WUHU216HW,2013-04-24 17:10:00,
2013-04-24 13:15:00,72.6,53.4,29.50,ESE,113,0.0,8.5,51,0.00,,,0.00,WUHU216HW,2013-04-24 17:15:00,
2013-04-24 13:20:00,72.6,52.9,29.50,NNE,23,6.2,15.4,50,0.00,,,0.00,WUHU216HW,2013-04-24 17:20:00,
2013-04-24 13:25:00,72.6,53.4,29.50,SE,135,7.8,15.4,51,0.00,,,0.00,WUHU216HW,2013-04-24 17:25:00,
2013-04-24 13:30:00,73.4,54.6,29.49,SE,135,2.6,9.3,52,0.00,,,0.00,WUHU216HW,2013-04-24 17:30:00,
2013-04-24 13:35:00,73.9,54.6,29.49,ESE,113,4.6,8.7,51,0.00,,,0.00,WUHU216HW,2013-04-24 17:35:00,
2013-04-24 13:40:00,74.4,55.1,29.49,ENE,68,6.4,8.9,51,0.00,,,0.00,WUHU216HW,2013-04-24 17:40:00,
2013-04-24 13:45:00,74.8,55.0,29.49,SSE,158,1.7,15.4,50,0.00,,,0.00,WUHU216HW,2013-04-24 17:45:00,
2013-04-24 13:50:00,74.4,54.8,29.49,ESE,113,13.4,15.4,49,0.00,,,0.00,WUHU216HW,2013-04-24 17:50:00,
2013-04-24 13:55:00,74.3,54.5,29.49,SE,135,2.9,13.4,50,0.00,,,0.00,WUHU216HW,2013-04-24 17:55:00,
2013-04-24 14:00:00,74.4,54.6,29.48,SSE,158,2.0,11.6,50,0.00,,,0.00,WUHU216HW,2013-04-24 18:00:00,
2013-04-24 14:05:00,75.3,55.5,29.48,SE,135,0.0,10.9,50,0.00,,,0.00,WUHU216HW,2013-04-24 18:05:00,
2013-04-24 14:10:00,76.1,55.5,29.47,SSE,158,9.3,10.9,49,0.00,,,0.00,WUHU216HW,2013-04-24 18:10:00,
2013-04-24 14:15:00,76.2,55.1,29.47,SSW,203,0.0,16.1,48,0.00,,,0.00,WUHU216HW,2013-04-24 18:15:00,
2013-04-24 14:20:00,76.8,56.8,29.48,SE,135,4.9,16.1,50,0.00,,,0.00,WUHU216HW,2013-04-24 18:20:00,
2013-04-24 14:25:00,77.1,55.3,29.47,NE,45,0.0,9.1,47,0.00,,,0.00,WUHU216HW,2013-04-24 18:25:00,
2013-04-24 14:30:00,77.5,56.2,29.47,SE,135,0.0,10.7,48,0.00,,,0.00,WUHU216HW,2013-04-24 18:30:00,
2013-04-24 14:35:00,77.5,55.6,29.47,SSE,158,2.6,10.7,47,0.00,,,0.00,WUHU216HW,2013-04-24 18:35:00,
2013-04-24 14:40:00,77.3,55.5,29.47,SW,225,0.8,9.1,47,0.00,,,0.00,WUHU216HW,2013-04-24 18:40:00,
2013-04-24 14:45:00,77.5,55.6,29.47,South,180,20.5,20.5,47,0.00,,,0.00,WUHU216HW,2013-04-24 18:45:00,
2013-04-24 14:50:00,77.7,55.2,29.46,East,90,2.2,20.5,46,0.00,,,0.00,WUHU216HW,2013-04-24 18:50:00,
2013-04-24 14:55:00,77.5,55.0,29.46,NE,45,6.4,6.4,46,0.00,,,0.00,WUHU216HW,2013-04-24 18:55:00,
2013-04-24 15:00:00,78.0,56.7,29.46,SE,135,2.9,8.9,48,0.00,,,0.00,WUHU216HW,2013-04-24 19:00:00,
2013-04-24 15:06:00,78.6,56.0,29.45,East,90,0.0,8.9,46,0.00,,,0.00,WUHU216HW,2013-04-24 19:06:00,
2013-04-24 15:11:00,78.9,55.7,29.45,SSE,158,5.5,14.5,45,0.00,,,0.00,WUHU216HW,2013-04-24 19:11:00,
2013-04-24 15:16:00,79.5,56.2,29.45,North,0,0.0,14.5,45,0.00,,,0.00,WUHU216HW,2013-04-24 19:16:00,
2013-04-24 15:21:00,80.2,56.8,29.44,South,180,0.0,13.1,45,0.00,,,0.00,WUHU216HW,2013-04-24 19:21:00,
2013-04-24 15:26:00,80.7,56.1,29.44,SW,225,0.0,9.1,43,0.00,,,0.00,WUHU216HW,2013-04-24 19:26:00,
2013-04-24 15:31:00,80.9,55.6,29.43,SSW,203,3.8,14.7,42,0.00,,,0.00,WUHU216HW,2013-04-24 19:31:00,
2013-04-24 15:36:00,80.7,55.5,29.44,SSW,203,4.4,8.5,42,0.00,,,0.00,WUHU216HW,2013-04-24 19:36:00,
2013-04-24 15:41:00,80.4,55.2,29.43,SE,135,9.8,10.2,42,0.00,,,0.00,WUHU216HW,2013-04-24 19:41:00,
2013-04-24 15:46:00,79.8,54.7,29.42,SSW,203,8.2,11.4,42,0.00,,,0.00,WUHU216HW,2013-04-24 19:46:00,
2013-04-24 15:51:00,79.3,54.8,29.42,ESE,113,0.0,11.4,43,0.00,,,0.00,WUHU216HW,2013-04-24 19:51:00,
2013-04-24 15:56:00,78.8,54.3,29.41,ESE,113,3.5,9.3,43,0.00,,,0.00,WUHU216HW,2013-04-24 19:56:00,
2013-04-24 16:01:00,78.4,54.6,29.41,ESE,113,0.0,9.3,44,0.00,,,0.00,WUHU216HW,2013-04-24 20:01:00,
2013-04-24 16:06:00,78.0,54.3,29.40,SE,135,0.0,3.5,44,0.00,,,0.00,WUHU216HW,2013-04-24 20:06:00,
2013-04-24 16:11:00,77.5,54.4,29.41,ENE,68,0.0,3.5,45,0.00,,,0.00,WUHU216HW,2013-04-24 20:11:00,
2013-04-24 16:17:00,77.1,54.1,29.40,East,90,11.1,15.4,45,0.00,,,0.00,WUHU216HW,2013-04-24 20:17:00,
2013-04-24 16:22:00,76.8,53.7,29.40,SSE,158,0.0,15.4,45,0.00,,,0.00,WUHU216HW,2013-04-24 20:22:00,
2013-04-24 16:27:00,76.8,54.4,29.39,South,180,5.1,5.8,46,0.00,,,0.00,WUHU216HW,2013-04-24 20:27:00,
2013-04-24 16:32:00,76.8,53.7,29.39,SE,135,0.0,12.0,46,0.00,,,0.00,WUHU216HW,2013-04-24 20:32:00,
2013-04-24 16:37:00,76.8,53.7,29.39,SSE,158,0.0,12.9,45,0.00,,,0.00,WUHU216HW,2013-04-24 20:37:00,
2013-04-24 16:42:00,77.5,54.4,29.38,ESE,113,0.0,12.9,45,0.00,,,0.00,WUHU216HW,2013-04-24 20:42:00,
2013-04-24 16:47:00,78.6,54.8,29.38,SSW,203,0.0,7.8,44,0.00,,,0.00,WUHU216HW,2013-04-24 20:47:00,
2013-04-24 16:52:00,78.9,55.1,29.37,SSE,158,14.5,14.5,44,0.00,,,0.00,WUHU216HW,2013-04-24 20:52:00,
2013-04-24 16:57:00,78.9,54.5,29.37,SE,135,7.3,14.5,43,0.00,,,0.00,WUHU216HW,2013-04-24 20:57:00,
2013-04-24 17:02:00,78.9,54.5,29.37,SSW,203,0.0,8.9,43,0.00,,,0.00,WUHU216HW,2013-04-24 21:02:00,
2013-04-24 17:07:00,78.6,54.1,29.36,SE,135,4.0,11.8,43,0.00,,,0.00,WUHU216HW,2013-04-24 21:07:00,
2013-04-24 17:12:00,78.6,54.8,29.36,South,180,0.0,11.8,44,0.00,,,0.00,WUHU216HW,2013-04-24 21:12:00,
2013-04-24 17:17:00,78.6,54.1,29.37,NW,315,0.0,4.4,43,0.00,,,0.00,WUHU216HW,2013-04-24 21:17:00,
2013-04-24 17:22:00,78.6,54.1,29.37,SSW,203,7.6,7.8,43,0.00,,,0.00,WUHU216HW,2013-04-24 21:22:00,
2013-04-24 17:27:00,78.6,54.1,29.37,West,270,1.1,7.8,43,0.00,,,0.00,WUHU216HW,2013-04-24 21:27:00,
2013-04-24 17:32:00,78.8,54.3,29.37,SW,225,8.9,10.2,43,0.00,,,0.00,WUHU216HW,2013-04-24 21:32:00,
2013-04-24 17:38:00,78.4,54.0,29.38,SE,135,0.0,10.2,43,0.00,,,0.00,WUHU216HW,2013-04-24 21:38:00,
2013-04-24 17:43:00,77.7,53.3,29.38,SSW,203,2.9,11.8,43,0.00,,,0.00,WUHU216HW,2013-04-24 21:43:00,
2013-04-24 17:48:00,77.3,53.6,29.39,SSE,158,5.3,11.8,44,0.00,,,0.00,WUHU216HW,2013-04-24 21:48:00,
2013-04-24 17:53:00,76.8,53.1,29.40,SSW,203,13.4,13.4,44,0.00,,,0.00,WUHU216HW,2013-04-24 21:53:00,
2013-04-24 17:58:00,76.6,53.6,29.41,SSE,158,0.0,13.4,45,0.00,,,0.00,WUHU216HW,2013-04-24 21:58:00,
2013-04-24 18:03:00,76.2,53.3,29.41,SSE,158,0.0,10.9,45,0.00,,,0.00,WUHU216HW,2013-04-24 22:03:00,
2013-04-24 18:08:00,76.2,53.3,29.41,SW,225,0.0,7.8,45,0.00,,,0.00,WUHU216HW,2013-04-24 22:08:00,
2013-04-24 18:13:00,76.1,53.1,29.42,SW,225,4.2,5.8,45,0.00,,,0.00,WUHU216HW,2013-04-24 22:13:00,
2013-04-24 18:18:00,75.9,53.6,29.43,West,270,2.0,7.1,46,0.00,,,0.00,WUHU216HW,2013-04-24 22:18:00,
2013-04-24 18:23:00,75.0,53.9,29.44,WNW,293,2.0,11.1,48,0.00,,,0.00,WUHU216HW,2013-04-24 22:23:00,
2013-04-24 18:28:00,73.7,53.9,29.44,WSW,248,0.0,11.1,50,0.00,,,0.00,WUHU216HW,2013-04-24 22:28:00,
2013-04-24 18:33:00,73.0,54.2,29.44,NNW,338,0.0,3.5,52,0.00,,,0.00,WUHU216HW,2013-04-24 22:33:00,
2013-04-24 18:38:00,71.9,54.6,29.43,NNE,23,0.0,7.3,55,0.00,,,0.00,WUHU216HW,2013-04-24 22:38:00,
2013-04-24 18:43:00,70.8,54.8,29.43,NNE,23,2.9,7.3,57,0.00,,,0.00,WUHU216HW,2013-04-24 22:43:00,
2013-04-24 18:48:00,70.3,55.3,29.45,NW,315,0.0,2.9,59,0.00,,,0.00,WUHU216HW,2013-04-24 22:48:00,
2013-04-24 18:53:00,69.6,55.2,29.47,WNW,293,0.0,2.2,60,0.04,,,0.02,WUHU216HW,2013-04-24 22:53:00,
2013-04-24 18:58:00,68.9,55.7,29.47,SE,135,0.0,0.0,63,0.10,,,0.10,WUHU216HW,2013-04-24 22:58:00,
2013-04-24 19:03:00,68.1,55.4,29.46,SE,135,0.0,0.0,64,0.10,,,0.10,WUHU216HW,2013-04-24 23:03:00,
2013-04-24 19:09:00,67.6,55.4,29.46,SE,135,0.0,0.0,65,0.10,,,0.10,WUHU216HW,2013-04-24 23:09:00,
2013-04-24 19:14:00,67.1,56.5,29.46,East,90,0.0,0.0,69,0.10,,,0.10,WUHU216HW,2013-04-24 23:14:00,
2013-04-24 19:19:00,66.5,56.4,29.45,ENE,68,0.0,0.0,70,0.10,,,0.10,WUHU216HW,2013-04-24 23:19:00,
2013-04-24 19:24:00,66.0,57.0,29.45,ENE,68,0.0,0.0,73,0.10,,,0.10,WUHU216HW,2013-04-24 23:24:00,
2013-04-24 19:29:00,65.4,56.9,29.45,ENE,68,0.0,0.0,74,0.10,,,0.10,WUHU216HW,2013-04-24 23:29:00,
2013-04-24 19:34:00,65.1,56.9,29.46,ENE,68,0.0,0.0,75,0.10,,,0.10,WUHU216HW,2013-04-24 23:34:00,
2013-04-24 19:39:00,64.9,57.1,29.47,ENE,68,0.0,0.0,76,0.12,,,0.12,WUHU216HW,2013-04-24 23:39:00,
2013-04-24 19:44:00,64.7,57.0,29.47,ENE,68,0.0,0.0,76,0.14,,,0.14,WUHU216HW,2013-04-24 23:44:00,
2013-04-24 19:49:00,64.7,57.0,29.47,ENE,68,0.0,0.0,76,0.14,,,0.14,WUHU216HW,2013-04-24 23:49:00,
2013-04-24 19:54:00,64.5,57.5,29.48,ENE,68,0.0,0.0,78,0.10,,,0.16,WUHU216HW,2013-04-24 23:54:00,
2013-04-24 19:59:00,64.5,57.9,29.48,ESE,113,0.0,0.0,79,0.06,,,0.16,WUHU216HW,2013-04-24 23:59:00,
2013-04-24 20:04:00,64.2,57.5,29.48,East,90,0.0,0.0,79,0.06,,,0.16,WUHU216HW,2013-04-25 00:04:00,
2013-04-24 20:09:00,64.2,57.5,29.47,ESE,113,0.0,0.0,79,0.06,,,0.16,WUHU216HW,2013-04-25 00:09:00,
2013-04-24 20:15:00,64.0,57.3,29.48,East,90,0.0,0.0,79,0.06,,,0.16,WUHU216HW,2013-04-25 00:15:00,
2013-04-24 20:20:00,63.8,57.5,29.47,East,90,0.0,0.0,80,0.06,,,0.16,WUHU216HW,2013-04-25 00:20:00,
2013-04-24 20:25:00,63.6,57.3,29.48,South,180,0.0,0.0,80,0.06,,,0.16,WUHU216HW,2013-04-25 00:25:00,
2013-04-24 20:30:00,63.5,57.2,29.49,SSW,203,0.0,0.0,80,0.06,,,0.16,WUHU216HW,2013-04-25 00:30:00,
2013-04-24 20:35:00,63.5,57.2,29.49,ESE,113,0.0,0.0,80,0.06,,,0.18,WUHU216HW,2013-04-25 00:35:00,
2013-04-24 20:40:00,63.5,57.2,29.49,ESE,113,0.0,0.0,80,0.04,,,0.18,WUHU216HW,2013-04-25 00:40:00,
2013-04-24 20:45:00,63.5,57.5,29.48,ESE,113,0.0,0.0,81,0.04,,,0.18,WUHU216HW,2013-04-25 00:45:00,
2013-04-24 20:50:00,63.3,57.3,29.48,ESE,113,0.0,0.0,81,0.04,,,0.18,WUHU216HW,2013-04-25 00:50:00,
2013-04-24 20:55:00,63.1,57.1,29.49,SE,135,0.0,0.0,81,0.02,,,0.18,WUHU216HW,2013-04-25 00:55:00,
2013-04-24 21:00:00,63.1,57.1,29.49,ESE,113,0.0,0.0,81,0.02,,,0.18,WUHU216HW,2013-04-25 01:00:00,
2013-04-24 21:05:00,63.1,57.1,29.49,East,90,0.0,0.0,81,0.02,,,0.18,WUHU216HW,2013-04-25 01:05:00,
2013-04-24 21:10:00,63.1,57.5,29.49,ENE,68,0.0,0.0,82,0.02,,,0.18,WUHU216HW,2013-04-25 01:10:00,
2013-04-24 21:15:00,62.9,57.3,29.50,ENE,68,0.0,0.0,82,0.02,,,0.18,WUHU216HW,2013-04-25 01:15:00,
2013-04-24 21:20:00,62.7,56.8,29.49,ENE,68,0.0,0.0,81,0.02,,,0.18,WUHU216HW,2013-04-25 01:20:00,
2013-04-24 21:25:00,62.7,57.1,29.50,ENE,68,0.0,0.0,82,0.02,,,0.18,WUHU216HW,2013-04-25 01:25:00,
2013-04-24 21:31:00,62.4,56.8,29.50,ENE,68,0.0,0.0,82,0.00,,,0.18,WUHU216HW,2013-04-25 01:31:00,
2013-04-24 21:36:00,62.2,56.9,29.50,ENE,68,0.0,0.0,83,0.00,,,0.18,WUHU216HW,2013-04-25 01:36:00,
2013-04-24 21:41:00,61.8,56.6,29.50,ENE,68,0.0,0.0,83,0.00,,,0.18,WUHU216HW,2013-04-25 01:41:00,
2013-04-24 21:46:00,61.5,56.3,29.51,ENE,68,0.0,0.0,83,0.00,,,0.18,WUHU216HW,2013-04-25 01:46:00,
2013-04-24 21:51:00,61.5,56.6,29.51,ENE,68,0.0,0.0,84,0.00,,,0.18,WUHU216HW,2013-04-25 01:51:00,
2013-04-24 21:56:00,61.5,56.6,29.52,ENE,68,0.0,0.0,84,0.00,,,0.18,WUHU216HW,2013-04-25 01:56:00,
2013-04-24 22:01:00,61.5,56.9,29.53,SSW,203,0.0,2.0,85,0.00,,,0.18,WUHU216HW,2013-04-25 02:01:00,
2013-04-24 22:06:00,61.5,56.9,29.55,NW,315,10.5,15.8,85,0.00,,,0.18,WUHU216HW,2013-04-25 02:06:00,
2013-04-24 22:11:00,61.3,55.4,29.56,NW,315,2.9,15.8,81,0.00,,,0.18,WUHU216HW,2013-04-25 02:11:00,
2013-04-24 22:16:00,61.3,54.8,29.56,WNW,293,4.0,11.6,79,0.00,,,0.18,WUHU216HW,2013-04-25 02:16:00,
2013-04-24 22:21:00,60.9,53.7,29.57,West,270,5.5,11.6,77,0.00,,,0.18,WUHU216HW,2013-04-25 02:21:00,
2013-04-24 22:26:00,60.8,53.2,29.59,West,270,8.7,11.6,76,0.00,,,0.18,WUHU216HW,2013-04-25 02:26:00,
2013-04-24 22:31:00,60.4,52.5,29.59,West,270,6.0,11.6,75,0.00,,,0.18,WUHU216HW,2013-04-25 02:31:00,
2013-04-24 22:37:00,60.0,51.4,29.59,WNW,293,12.7,12.7,73,0.00,,,0.18,WUHU216HW,2013-04-25 02:37:00,
2013-04-24 22:42:00,59.7,51.0,29.60,SSW,203,2.6,12.7,73,0.00,,,0.18,WUHU216HW,2013-04-25 02:42:00,
2013-04-24 22:47:00,59.5,50.5,29.61,NW,315,3.3,11.4,72,0.00,,,0.18,WUHU216HW,2013-04-25 02:47:00,
2013-04-24 22:52:00,58.8,49.4,29.61,NW,315,5.5,6.9,71,0.00,,,0.18,WUHU216HW,2013-04-25 02:52:00,
2013-04-24 22:57:00,58.8,49.4,29.62,West,270,2.9,6.9,71,0.00,,,0.18,WUHU216HW,2013-04-25 02:57:00,
2013-04-24 23:02:00,58.8,49.1,29.62,West,270,9.6,9.6,70,0.00,,,0.18,WUHU216HW,2013-04-25 03:02:00,
2013-04-24 23:07:00,58.6,48.9,29.62,WNW,293,0.4,9.6,70,0.00,,,0.18,WUHU216HW,2013-04-25 03:07:00,
2013-04-24 23:12:00,58.2,48.5,29.63,NW,315,5.5,11.8,70,0.00,,,0.18,WUHU216HW,2013-04-25 03:12:00,
2013-04-24 23:17:00,57.7,47.2,29.64,NNW,338,11.8,11.8,68,0.00,,,0.18,WUHU216HW,2013-04-25 03:17:00,
2013-04-24 23:22:00,57.0,45.7,29.64,NW,315,7.6,12.9,66,0.00,,,0.18,WUHU216HW,2013-04-25 03:22:00,
2013-04-24 23:27:00,56.1,44.8,29.64,WNW,293,7.8,19.2,66,0.00,,,0.18,WUHU216HW,2013-04-25 03:27:00,
2013-04-24 23:32:00,55.7,44.9,29.65,West,270,0.2,19.2,67,0.00,,,0.18,WUHU216HW,2013-04-25 03:32:00,
2013-04-24 23:37:00,55.2,44.0,29.66,NW,315,16.7,16.7,66,0.00,,,0.18,WUHU216HW,2013-04-25 03:37:00,
2013-04-24 23:42:00,54.8,43.6,29.66,NNW,338,14.0,17.4,66,0.00,,,0.18,WUHU216HW,2013-04-25 03:42:00,
2013-04-24 23:47:00,54.5,43.3,29.66,West,270,0.0,17.4,66,0.00,,,0.18,WUHU216HW,2013-04-25 03:47:00,
2013-04-24 23:52:00,54.3,42.9,29.66,WNW,293,0.8,12.7,66,0.00,,,0.18,WUHU216HW,2013-04-25 03:52:00,
2013-04-24 23:57:00,53.9,42.8,29.66,WNW,293,11.1,12.7,66,0.00,,,0.18,WUHU216HW,2013-04-25 03:57:00,